• Join FlightAware (Why Join?)
  • Login
  • US Flag 
02:07PM EDT


 

Airport Tracker/Info


-or-


 

Live Flight TrackerFlight Track Log ✈ UPS1122 ✈ 12-Jun-2013 ✈ KBDL - KALB

Flight Track Log - Related Links

Times and Time Zones

All times are in EDT time to prevent confusion due to time zone crossing. See the UPS1122 flight status page for this flight to view local times or setup timezone preferences in your user account.

Time Position Orientation Groundspeed Altitude Reporting Facility
EDT Latitude Longitude Course Direction KTS MPH feet Rate Location/Type
06:22AM 41.9458 -72.7025 319° Northwest 147 169 1,700  Level Boston Center
06:22AM 41.9603 -72.7192 319° Northwest 129 148 2,500 2,100 Climbing Boston Center
06:23AM 41.9956 -72.7725 312° West 187 215 5,100 2,760 Climbing Boston Center
06:24AM 42.0433 -72.8342 316° Northwest 243 280 8,200 2,460 Climbing Boston Center
06:25AM 42.0911 -72.9017 314° West 246 283 10,100 840 Climbing Boston Center
06:26AM 42.1428 -72.9692 316° Northwest 245 282 10,000 -60 Descending Boston Center
06:27AM 42.1800 -73.0200 315° West 240 276 10,000  Level Boston Center
06:28AM 42.2256 -73.0878 312° West 243 280 10,000  Level Boston Center
06:29AM 42.2772 -73.1556 316° Northwest 243 280 10,000  Level Boston Center
06:30AM 42.3100 -73.2317 300° West 245 282 10,000  Level Boston Center
06:31AM 42.3450 -73.3136 300° West 241 277 10,000 -600 Level Boston Center
06:32AM 42.3778 -73.3900 300° West 239 275 8,800 -1,500 Descending Boston Center
06:33AM 42.4125 -73.4664 302° West 239 275 7,000 -1,740 Descending Boston Center
06:34AM 42.4472 -73.5458 301° West 244 281 5,300 -1,620 Descending Boston Center
06:35AM 42.4797 -73.6253 299° West 242 278 3,800 -1,200 Descending Boston Center
06:36AM 42.5269 -73.6825 318° Northwest 228 262 2,900 -720 Descending Boston Center
06:37AM 42.5764 -73.7342 322° Northwest 224 258 2,400 -480 Descending Boston Center
06:38AM 42.6281 -73.7806 327° Northwest 208 239 2,000 -360 Descending Boston Center
06:39AM 42.6694 -73.8039 337° Northwest 141 162 1,700 -540 Descending Boston Center
06:40AM 42.7028 -73.8075 355° North 102 117 1,000 -720 Descending Boston Center